Time;durP1;ratioP1;P1;durP2;ratioP2;P2;SDS_P1;SDS_P2;PMS_P1;PMS_P2;Temp;Humidity;BMP_temperature;BMP_pressure;BME280_temperature;BME280_humidity;BME280_pressure;Samples;Min_cycle;Max_cycle;Signal;HPM_P1;HPM_P2
2023/12/14 00:01:21;;;;;;;18.13;12.13;;;;;;;16.81;47.00;92004.47;5085493;28;20390;-93
2023/12/14 00:03:46;;;;;;;15.88;11.13;;;;;;;16.81;47.27;92012.66;5061881;28;20548;-93
2023/12/14 00:06:12;;;;;;;18.35;11.43;;;;;;;16.76;47.63;92013.50;5072937;28;20038;-92
2023/12/14 00:08:38;;;;;;;19.05;11.88;;;;;;;16.75;47.49;92018.22;5089433;28;20028;-92
2023/12/14 00:11:06;;;;;;;16.17;11.65;;;;;;;16.75;47.38;92020.22;5051341;28;20063;-91
2023/12/14 00:13:32;;;;;;;17.73;11.60;;;;;;;16.74;47.55;92024.22;5087076;27;20027;-89
2023/12/14 00:15:57;;;;;;;17.85;11.13;;;;;;;16.76;47.46;92033.34;5074315;28;20043;-92
2023/12/14 00:18:23;;;;;;;19.38;12.35;;;;;;;16.75;47.62;92040.06;5078301;28;20436;-92
2023/12/14 00:20:48;;;;;;;20.83;12.23;;;;;;;16.76;47.35;92038.06;5091780;27;20482;-90
2023/12/14 00:23:13;;;;;;;16.92;10.75;;;;;;;16.77;47.46;92034.81;5060533;28;20028;-90
2023/12/14 00:25:39;;;;;;;15.73;10.80;;;;;;;16.79;47.17;92039.75;5073123;28;20034;-92
2023/12/14 00:28:04;;;;;;;15.32;10.50;;;;;;;16.78;47.37;92036.28;5081598;28;20023;-91
2023/12/14 00:30:30;;;;;;;17.83;11.20;;;;;;;16.76;47.27;92033.34;5069192;28;20027;-91
2023/12/14 00:32:55;;;;;;;16.10;11.10;;;;;;;16.78;47.32;92044.47;5076991;28;20396;-90
2023/12/14 00:35:20;;;;;;;17.65;11.68;;;;;;;16.84;47.64;92038.88;5075303;28;20557;-91
2023/12/14 00:37:46;;;;;;;16.48;11.07;;;;;;;16.81;47.29;92039.94;5058856;28;20090;-91
2023/12/14 00:40:11;;;;;;;18.55;10.70;;;;;;;16.81;47.30;92047.41;5065474;28;20333;-93
2023/12/14 00:42:37;;;;;;;14.65;9.93;;;;;;;16.75;47.49;92059.16;5055777;28;20047;-91
2023/12/14 00:45:03;;;;;;;16.00;10.07;;;;;;;16.76;47.74;92055.19;5069117;28;20016;-91
2023/12/14 00:47:28;;;;;;;16.45;10.38;;;;;;;16.79;47.53;92050.66;5069933;28;20023;-91
2023/12/14 00:49:53;;;;;;;14.18;9.57;;;;;;;16.76;47.25;92059.91;5068620;28;20208;-91
2023/12/14 00:52:19;;;;;;;14.63;9.52;;;;;;;16.79;47.58;92064.31;5084747;28;20178;-90
2023/12/14 00:54:44;;;;;;;14.02;9.82;;;;;;;16.77;47.16;92067.56;5070851;28;20039;-91
2023/12/14 00:57:10;;;;;;;13.30;10.15;;;;;;;16.78;47.26;92063.56;5074243;28;20048;-90
2023/12/14 00:59:35;;;;;;;14.60;9.70;;;;;;;16.78;47.47;92065.56;5090142;28;20040;-91
2023/12/14 01:02:00;;;;;;;14.20;9.23;;;;;;;16.80;47.14;92071.22;5088708;28;20042;-89
2023/12/14 01:04:26;;;;;;;15.10;9.63;;;;;;;16.77;47.52;92077.75;5080654;28;20032;-90
2023/12/14 01:06:51;;;;;;;14.80;9.43;;;;;;;16.75;47.42;92080.25;5057658;28;20024;-90
2023/12/14 01:09:17;;;;;;;11.63;9.05;;;;;;;16.78;47.18;92084.66;5072402;28;20024;-92
2023/12/14 01:11:42;;;;;;;14.60;9.27;;;;;;;16.78;47.59;92088.13;5054280;28;20031;-89
2023/12/14 01:14:07;;;;;;;15.55;9.43;;;;;;;16.82;47.26;92085.06;5071878;27;20035;-93
2023/12/14 01:16:33;;;;;;;12.70;8.95;;;;;;;16.84;47.03;92098.91;5059026;28;20024;-90
2023/12/14 01:18:58;;;;;;;13.55;8.60;;;;;;;16.81;47.45;92099.25;5088205;28;20402;-92
2023/12/14 01:21:24;;;;;;;13.23;9.23;;;;;;;16.75;47.37;92102.09;5074038;28;20593;-92
2023/12/14 01:23:49;;;;;;;13.98;8.85;;;;;;;16.78;47.23;92103.75;5054969;28;20609;-90
2023/12/14 01:26:15;;;;;;;12.32;8.30;;;;;;;16.81;47.06;92101.97;5071184;28;20495;-92
2023/12/14 01:28:40;;;;;;;13.50;8.80;;;;;;;16.80;47.06;92103.97;5075175;28;20023;-90
2023/12/14 01:31:05;;;;;;;15.45;9.52;;;;;;;16.83;47.26;92102.19;5066630;28;20027;-91
2023/12/14 01:33:31;;;;;;;13.23;8.63;;;;;;;16.84;47.23;92104.38;5072669;28;20251;-91
2023/12/14 01:35:57;;;;;;;13.45;8.73;;;;;;;16.78;47.27;92106.50;5071332;28;20028;-91
2023/12/14 01:38:22;;;;;;;12.85;8.43;;;;;;;16.81;47.30;92107.44;5074219;28;20016;-91
2023/12/14 01:40:47;;;;;;;13.05;8.43;;;;;;;16.81;47.39;92107.44;5071125;28;20035;-91
2023/12/14 01:43:13;;;;;;;12.50;7.75;;;;;;;16.76;47.10;92107.03;5078395;28;20458;-90
2023/12/14 01:45:38;;;;;;;11.13;7.68;;;;;;;16.77;47.42;92110.50;5069433;28;20016;-89
2023/12/14 01:48:04;;;;;;;11.00;7.97;;;;;;;16.79;47.06;92105.22;5064244;28;20032;-91
2023/12/14 01:50:30;;;;;;;10.93;7.18;;;;;;;16.78;47.39;92114.69;5078402;27;20115;-91
2023/12/14 01:52:55;;;;;;;12.52;7.60;;;;;;;16.81;47.36;92115.63;5095493;27;20019;-90
2023/12/14 01:55:21;;;;;;;12.27;8.40;;;;;;;16.79;47.28;92118.88;5076948;28;20019;-91
2023/12/14 01:57:46;;;;;;;10.77;7.38;;;;;;;16.79;47.45;92116.16;5065851;28;20486;-90
2023/12/14 02:00:27;;;;;;;10.50;7.72;;;;;;;16.75;47.22;92116.47;5074718;28;20501;-91
2023/12/14 02:02:52;;;;;;;9.77;7.38;;;;;;;16.72;47.32;92120.25;5105629;28;20082;-90
2023/12/14 02:05:18;;;;;;;10.38;7.40;;;;;;;16.75;47.23;92129.38;5075648;28;20028;-89
2023/12/14 02:07:43;;;;;;;9.52;7.13;;;;;;;16.75;47.12;92132.84;5076687;27;20043;-92
2023/12/14 02:10:09;;;;;;;9.50;6.85;;;;;;;16.77;47.41;92135.06;5081396;28;20031;-91
2023/12/14 02:12:35;;;;;;;10.35;7.03;;;;;;;16.78;47.02;92136.50;5081088;28;20035;-90
2023/12/14 02:15:00;;;;;;;10.45;6.72;;;;;;;16.76;47.49;92141.78;5071175;28;20028;-89
2023/12/14 02:17:25;;;;;;;10.85;7.10;;;;;;;16.77;47.55;92137.78;5079698;28;20443;-90
2023/12/14 02:19:51;;;;;;;9.88;6.97;;;;;;;16.77;47.72;92130.31;5089403;28;20049;-92
2023/12/14 02:22:17;;;;;;;11.48;6.78;;;;;;;16.78;47.29;92144.69;5074573;28;20024;-90
2023/12/14 02:24:43;;;;;;;10.73;7.07;;;;;;;16.81;47.24;92151.84;5060171;28;20028;-91
2023/12/14 02:27:08;;;;;;;11.02;7.18;;;;;;;16.82;47.49;92153.31;5071137;28;20031;-91
2023/12/14 02:29:33;;;;;;;10.68;6.55;;;;;;;16.78;47.29;92150.16;5076470;27;20374;-92
2023/12/14 02:32:01;;;;;;;10.25;6.50;;;;;;;16.81;47.18;92149.09;5094264;27;20050;-92
2023/12/14 02:34:27;;;;;;;10.13;7.00;;;;;;;16.84;47.23;92158.22;5083410;28;20028;-92
2023/12/14 02:36:52;;;;;;;8.82;6.15;;;;;;;16.80;47.64;92161.28;5059478;28;20027;-93
2023/12/14 02:39:18;;;;;;;10.05;6.90;;;;;;;16.82;47.25;92158.03;5070196;28;20024;-92
2023/12/14 02:41:43;;;;;;;9.98;5.80;;;;;;;16.80;46.99;92164.00;5082332;28;20027;-91
2023/12/14 02:44:09;;;;;;;9.82;6.78;;;;;;;16.81;46.91;92164.75;5071097;28;20024;-90
2023/12/14 02:46:34;;;;;;;7.95;6.22;;;;;;;16.80;47.27;92166.75;5058509;27;20116;-94
2023/12/14 02:48:59;;;;;;;9.90;6.43;;;;;;;16.79;47.25;92157.09;5074779;28;20035;-91
2023/12/14 02:51:25;;;;;;;9.07;6.05;;;;;;;16.78;47.05;92169.25;5081109;27;20044;-91
2023/12/14 02:53:50;;;;;;;8.80;6.55;;;;;;;16.78;47.23;92166.53;5093856;27;20019;-91
2023/12/14 02:56:16;;;;;;;9.32;6.50;;;;;;;16.80;47.10;92174.94;5071176;27;20107;-93
2023/12/14 02:58:41;;;;;;;9.98;6.25;;;;;;;16.82;47.32;92174.41;5082766;28;20048;-94
2023/12/14 03:01:07;;;;;;;8.15;6.22;;;;;;;16.79;47.28;92182.38;5071585;28;20038;-91
2023/12/14 03:03:32;;;;;;;9.32;6.40;;;;;;;16.77;47.17;92173.25;5107968;27;20529;-92
2023/12/14 03:05:58;;;;;;;10.18;6.05;;;;;;;16.78;47.53;92172.00;5068173;28;20480;-92
2023/12/14 03:08:24;;;;;;;9.32;5.72;;;;;;;16.76;47.27;92183.44;5085400;28;20028;-90
2023/12/14 03:10:49;;;;;;;9.80;6.30;;;;;;;16.78;47.11;92188.38;5069735;28;20544;-91
2023/12/14 03:13:15;;;;;;;8.20;5.78;;;;;;;16.81;47.37;92187.31;5080467;28;20035;-93
2023/12/14 03:15:42;;;;;;;8.18;6.05;;;;;;;16.81;47.38;92200.97;5090380;27;20023;-92
2023/12/14 03:18:07;;;;;;;9.10;5.28;;;;;;;16.76;47.40;92186.16;5074383;28;20032;-93
2023/12/14 03:20:33;;;;;;;8.75;5.80;;;;;;;16.76;47.26;92197.09;5075288;27;20031;-91
2023/12/14 03:22:58;;;;;;;8.63;5.85;;;;;;;16.77;47.30;92200.53;5094539;27;20393;-91
2023/12/14 03:25:24;;;;;;;8.30;5.65;;;;;;;16.79;47.39;92204.22;5091822;27;20484;-93
2023/12/14 03:27:49;;;;;;;8.25;5.72;;;;;;;16.83;47.11;92200.44;5069658;28;20455;-93
2023/12/14 03:30:15;;;;;;;9.93;5.30;;;;;;;16.80;47.27;92207.69;5084102;28;20050;-91
2023/12/14 03:32:41;;;;;;;8.10;5.70;;;;;;;16.81;47.26;92209.16;5083630;28;20035;-93
2023/12/14 03:35:08;;;;;;;6.75;4.90;;;;;;;16.81;46.86;92205.69;5070206;28;20020;-92
2023/12/14 03:37:33;;;;;;;7.72;5.32;;;;;;;16.82;47.00;92207.88;5029312;28;20055;-92
2023/12/14 03:39:59;;;;;;;6.53;4.80;;;;;;;16.85;47.42;92217.00;5018788;28;20044;-92
2023/12/14 03:42:24;;;;;;;6.90;4.95;;;;;;;16.83;46.99;92225.72;5028034;28;20044;-93
2023/12/14 03:44:49;;;;;;;7.47;4.85;;;;;;;16.81;47.53;92219.31;5002373;28;20033;-92
2023/12/14 03:47:15;;;;;;;9.27;5.40;;;;;;;16.85;47.22;92222.47;5019402;28;20044;-91
2023/12/14 03:49:40;;;;;;;7.22;5.07;;;;;;;16.77;47.40;92230.56;5025900;28;20032;-92
2023/12/14 03:52:06;;;;;;;7.95;5.05;;;;;;;16.79;47.34;92228.03;5051001;28;20506;-91
2023/12/14 03:54:31;;;;;;;7.47;4.97;;;;;;;16.80;46.79;92237.69;5027850;28;20124;-93
2023/12/14 03:56:57;;;;;;;6.65;5.25;;;;;;;16.78;47.36;92232.03;5018948;28;20593;-90
2023/12/14 03:59:22;;;;;;;7.30;4.82;;;;;;;16.81;47.20;92244.63;5039923;28;20035;-91
2023/12/14 04:01:47;;;;;;;7.40;5.07;;;;;;;16.78;46.86;92237.50;5016490;28;20048;-90
2023/12/14 04:04:13;;;;;;;7.95;4.95;;;;;;;16.79;47.33;92244.41;4995570;28;20037;-91
2023/12/14 04:06:38;;;;;;;6.57;4.57;;;;;;;16.81;46.89;92236.44;5014870;28;20028;-93
2023/12/14 04:09:04;;;;;;;6.72;4.78;;;;;;;16.81;46.97;92247.34;5061934;28;20241;-91
2023/12/14 04:11:29;;;;;;;7.13;4.72;;;;;;;16.77;46.96;92258.59;5071378;28;20032;-92
2023/12/14 04:13:55;;;;;;;7.68;4.45;;;;;;;16.80;47.06;92254.06;5056427;28;20478;-91
2023/12/14 04:16:20;;;;;;;7.20;4.35;;;;;;;16.79;47.11;92266.97;5087047;28;20568;-92
2023/12/14 04:18:46;;;;;;;6.15;4.43;;;;;;;16.82;47.04;92265.19;5066585;28;20032;-90
2023/12/14 04:21:11;;;;;;;6.85;4.50;;;;;;;16.82;47.19;92273.38;5073123;28;20088;-93
2023/12/14 04:23:37;;;;;;;6.90;4.40;;;;;;;16.87;46.63;92274.53;5072200;28;20023;-91
2023/12/14 04:26:02;;;;;;;5.22;3.92;;;;;;;16.80;46.86;92281.38;5090579;28;20576;-93
2023/12/14 04:28:28;;;;;;;6.97;4.68;;;;;;;16.83;47.24;92282.31;5079470;28;20054;-91
2023/12/14 04:30:53;;;;;;;7.50;4.68;;;;;;;16.87;47.19;92280.00;5088402;28;20040;-92
2023/12/14 04:33:19;;;;;;;14.75;9.20;;;;;;;16.81;46.96;92293.00;5089719;28;20039;-92
2023/12/14 04:35:45;;;;;;;28.17;21.00;;;;;;;16.90;47.51;92296.03;5088599;28;20538;-90
2023/12/14 04:38:11;;;;;;;16.77;9.68;;;;;;;16.95;47.54;92297.19;5103824;28;20034;-93
2023/12/14 04:40:36;;;;;;;35.15;18.15;;;;;;;17.06;47.51;92302.44;5065149;28;20028;-94
2023/12/14 04:43:02;;;;;;;201.60;71.70;;;;;;;17.09;47.40;92307.56;5077747;28;20536;-92
2023/12/14 04:45:28;;;;;;;33.65;15.63;;;;;;;17.15;48.23;92304.69;5072501;28;20052;-92
2023/12/14 04:47:53;;;;;;;21.52;9.10;;;;;;;17.13;47.23;92309.94;5077009;28;20028;-93
2023/12/14 04:50:19;;;;;;;19.33;10.60;;;;;;;17.04;47.29;92302.94;5087087;28;20050;-92
2023/12/14 04:52:44;;;;;;;12.68;7.85;;;;;;;17.08;46.66;92300.63;5083521;28;20035;-93
2023/12/14 04:55:10;;;;;;;18.45;11.23;;;;;;;16.98;46.88;92312.50;5083994;28;20016;-92
2023/12/14 04:57:36;;;;;;;22.38;10.77;;;;;;;16.94;46.25;92312.81;5069454;28;20043;-93
2023/12/14 05:00:04;;;;;;;72.50;22.60;;;;;;;16.76;46.58;92322.63;5056990;28;20078;-89
2023/12/14 05:02:31;;;;;;;362.63;221.80;;;;;;;16.87;47.13;92327.13;5085240;28;20027;-91
2023/12/14 05:04:57;;;;;;;88.85;39.25;;;;;;;16.92;46.70;92325.53;5080321;28;20031;-93
2023/12/14 05:07:23;;;;;;;130.50;65.13;;;;;;;16.89;47.18;92327.31;5061662;27;20034;-91
2023/12/14 05:09:49;;;;;;;139.63;60.85;;;;;;;16.69;45.61;92333.41;5080373;27;20080;-93
2023/12/14 05:12:15;;;;;;;151.23;55.67;;;;;;;16.61;45.37;92335.31;5070649;28;20028;-94
2023/12/14 05:14:40;;;;;;;204.52;62.33;;;;;;;16.57;44.84;92340.34;5078918;28;20059;-92
2023/12/14 05:17:06;;;;;;;231.75;75.75;;;;;;;16.53;44.17;92337.19;5059393;28;20031;-93
2023/12/14 05:19:35;;;;;;;168.13;63.88;;;;;;;16.47;44.04;92342.72;5078956;28;20032;-92
2023/12/14 05:22:01;;;;;;;183.70;67.45;;;;;;;16.35;44.49;92349.66;5099926;28;20024;-92
2023/12/14 05:24:26;;;;;;;142.77;51.90;;;;;;;16.44;43.99;92358.19;5091009;28;20039;-92
2023/12/14 05:26:52;;;;;;;174.75;61.22;;;;;;;16.47;44.11;92353.63;5078086;28;20028;-94
2023/12/14 05:29:17;;;;;;;156.40;62.30;;;;;;;16.50;44.85;92357.31;5072927;27;20038;-92
2023/12/14 05:31:43;;;;;;;139.23;50.88;;;;;;;16.54;45.09;92368.66;5057095;28;20028;-91
2023/12/14 05:34:08;;;;;;;111.90;49.95;;;;;;;16.57;45.51;92362.16;5092998;28;20031;-91
2023/12/14 05:36:34;;;;;;;125.82;58.75;;;;;;;16.58;45.77;92369.81;5069873;27;20026;-89
2023/12/14 05:38:59;;;;;;;143.07;63.97;;;;;;;16.54;45.52;92374.13;5071881;28;20035;-89
2023/12/14 05:41:25;;;;;;;152.10;67.88;;;;;;;16.67;45.85;92372.16;5068383;28;20095;-87
2023/12/14 05:43:50;;;;;;;163.98;70.90;;;;;;;16.73;45.70;92380.25;5093498;28;20028;-90
2023/12/14 05:46:23;;;;;;;152.90;68.55;;;;;;;16.71;46.28;92388.94;5091831;28;20382;-88
2023/12/14 05:48:51;;;;;;;149.57;64.93;;;;;;;16.70;45.71;92384.75;5079709;28;20024;-87
2023/12/14 05:51:29;;;;;;;130.50;59.83;;;;;;;16.73;46.00;92399.34;5074629;28;20027;-88
2023/12/14 05:53:55;;;;;;;132.68;60.75;;;;;;;16.79;45.88;92395.25;5072413;28;20028;-89
2023/12/14 05:56:20;;;;;;;121.03;54.75;;;;;;;16.77;45.79;92386.84;5088724;28;20510;-89
2023/12/14 05:58:46;;;;;;;129.55;57.30;;;;;;;16.75;45.63;92394.09;5090480;28;20047;-88
2023/12/14 06:01:11;;;;;;;117.63;56.13;;;;;;;16.73;45.51;92405.53;5076654;28;20047;-90
2023/12/14 06:03:36;;;;;;;120.25;51.22;;;;;;;16.71;45.83;92401.84;5057813;28;20036;-91
2023/12/14 06:06:03;;;;;;;118.13;53.58;;;;;;;16.76;45.93;92409.94;5051822;28;20447;-91
2023/12/14 06:08:29;;;;;;;145.50;61.88;;;;;;;16.85;45.76;92416.25;5033200;28;20032;-91
2023/12/14 06:10:55;;;;;;;201.40;90.20;;;;;;;16.78;45.08;92423.06;5050244;28;20037;-91
2023/12/14 06:13:21;;;;;;;168.90;70.70;;;;;;;16.60;44.99;92421.13;5053672;28;20048;-92
2023/12/14 06:15:46;;;;;;;168.40;74.72;;;;;;;16.56;45.20;92421.44;5030953;28;20039;-92
2023/12/14 06:18:13;;;;;;;165.20;70.80;;;;;;;16.65;45.23;92423.81;5039476;28;20041;-92
2023/12/14 06:20:40;;;;;;;175.93;80.72;;;;;;;16.71;45.38;92431.88;5065543;28;20043;-91
2023/12/14 06:23:06;;;;;;;141.77;67.22;;;;;;;16.68;45.63;92435.66;5056419;28;20139;-92
2023/12/14 06:25:31;;;;;;;222.05;103.88;;;;;;;16.74;45.47;92431.56;5062745;28;20037;-93
2023/12/14 06:27:57;;;;;;;229.52;112.88;;;;;;;16.77;45.72;92446.91;5048329;28;20077;-92
2023/12/14 06:30:22;;;;;;;232.82;108.43;;;;;;;16.79;45.52;92441.66;5069838;28;20042;-89
2023/12/14 06:32:51;;;;;;;231.90;104.82;;;;;;;16.82;45.32;92442.59;5077508;28;20026;-92
2023/12/14 06:35:16;;;;;;;235.00;120.25;;;;;;;16.72;45.74;92455.19;5087755;28;20036;-89
2023/12/14 06:37:42;;;;;;;234.32;115.88;;;;;;;16.71;45.46;92451.72;5049502;27;20084;-90
2023/12/14 06:40:08;;;;;;;221.55;108.32;;;;;;;16.66;45.52;92454.56;5075647;27;20031;-91
2023/12/14 06:42:34;;;;;;;221.93;109.03;;;;;;;16.66;46.06;92460.75;5068321;27;20027;-88
2023/12/14 06:45:01;;;;;;;243.75;109.35;;;;;;;16.72;45.50;92464.09;5080865;28;20920;-89
2023/12/14 06:47:27;;;;;;;252.48;115.03;;;;;;;16.75;45.99;92460.34;5075822;28;20067;-91
2023/12/14 06:49:52;;;;;;;246.60;117.20;;;;;;;16.83;45.73;92473.38;5064976;28;20024;-92
2023/12/14 06:52:17;;;;;;;216.40;111.50;;;;;;;16.91;45.74;92472.19;5077432;27;20027;-92
2023/12/14 06:54:43;;;;;;;190.57;88.43;;;;;;;16.71;44.26;92478.25;5067956;28;20027;-92
2023/12/14 06:57:08;;;;;;;168.02;70.25;;;;;;;16.49;44.18;92487.53;5072142;28;20526;-93
2023/12/14 06:59:34;;;;;;;132.43;50.70;;;;;;;16.47;44.03;92476.41;5074261;28;20024;-91
2023/12/14 07:01:59;;;;;;;128.05;47.47;;;;;;;16.39;43.94;92489.19;5080002;27;20061;-93
2023/12/14 07:04:24;;;;;;;66.70;29.73;;;;;;;16.37;43.88;92500.63;5060859;28;20019;-92
2023/12/14 07:06:51;;;;;;;60.40;30.48;;;;;;;16.45;43.64;92504.19;5103096;28;20620;-92
2023/12/14 07:09:17;;;;;;;34.05;18.83;;;;;;;16.37;43.49;92505.34;5095043;27;20408;-94
2023/12/14 07:11:42;;;;;;;25.42;14.30;;;;;;;16.29;43.21;92507.91;5057412;28;20038;-90
2023/12/14 07:14:08;;;;;;;26.48;10.80;;;;;;;16.17;43.43;92514.81;5059928;28;20020;-92
2023/12/14 07:16:33;;;;;;;27.13;11.30;;;;;;;16.17;43.52;92517.53;5086629;28;20024;-89
2023/12/14 07:18:59;;;;;;;22.95;8.45;;;;;;;16.10;43.38;92518.13;5077660;28;20114;-92
2023/12/14 07:21:24;;;;;;;25.67;10.68;;;;;;;15.96;43.47;92533.69;5073295;28;20431;-90
2023/12/14 07:23:50;;;;;;;35.42;14.10;;;;;;;16.03;43.53;92522.16;5073708;28;20093;-91
2023/12/14 07:26:15;;;;;;;106.57;32.42;;;;;;;16.12;44.06;92526.50;5059891;28;20089;-91
2023/12/14 07:28:42;;;;;;;86.05;28.55;;;;;;;16.24;44.28;92530.53;5072964;28;20034;-90
2023/12/14 07:31:07;;;;;;;97.10;35.22;;;;;;;16.29;44.90;92539.91;5057725;28;20015;-91
2023/12/14 07:33:33;;;;;;;80.85;31.75;;;;;;;16.30;44.80;92539.38;5067836;28;20031;-92
2023/12/14 07:35:58;;;;;;;81.30;38.28;;;;;;;16.39;45.34;92555.38;5064851;28;20069;-90
2023/12/14 07:38:25;;;;;;;92.60;42.25;;;;;;;16.42;45.74;92553.63;5060689;28;20022;-89
2023/12/14 07:40:52;;;;;;;67.70;34.75;;;;;;;16.44;45.57;92551.84;5082873;28;20059;-90
2023/12/14 07:43:18;;;;;;;78.50;36.60;;;;;;;16.54;45.91;92560.38;5064003;28;20039;-90
2023/12/14 07:45:44;;;;;;;89.10;42.72;;;;;;;16.53;46.35;92566.34;5093040;28;20028;-90
2023/12/14 07:48:09;;;;;;;95.85;39.25;;;;;;;16.52;46.10;92575.78;5072113;28;20023;-90
2023/12/14 07:50:35;;;;;;;78.90;36.63;;;;;;;16.55;46.40;92572.75;5116084;27;20028;-90
2023/12/14 07:53:00;;;;;;;85.40;36.08;;;;;;;16.51;46.57;92575.03;5059720;27;20028;-90
2023/12/14 07:55:26;;;;;;;82.97;33.88;;;;;;;16.62;46.36;92569.44;5063375;27;20027;-90
2023/12/14 07:57:51;;;;;;;66.30;33.40;;;;;;;16.61;46.79;92578.13;5062719;28;20040;-92
2023/12/14 08:00:17;;;;;;;72.80;32.72;;;;;;;16.65;46.73;92573.88;5094315;28;20042;-89
2023/12/14 08:02:43;;;;;;;65.72;32.45;;;;;;;16.57;46.41;92586.63;5077987;27;20034;-92
2023/12/14 08:05:09;;;;;;;55.58;30.98;;;;;;;16.64;46.66;92588.03;5081966;28;20502;-91
2023/12/14 08:07:35;;;;;;;65.80;31.50;;;;;;;16.65;46.93;92593.00;5057247;28;20065;-91
2023/12/14 08:10:00;;;;;;;64.82;30.95;;;;;;;16.66;46.93;92589.00;5057632;28;20055;-89
2023/12/14 08:12:26;;;;;;;82.90;31.83;;;;;;;16.69;47.38;92595.38;5091874;28;20079;-90
2023/12/14 08:14:52;;;;;;;65.00;29.58;;;;;;;16.71;47.52;92601.06;5070016;28;20020;-92
2023/12/14 08:17:17;;;;;;;78.68;31.67;;;;;;;16.73;47.63;92601.28;5075395;28;20035;-91
2023/12/14 08:19:45;;;;;;;72.22;30.75;;;;;;;16.75;46.97;92604.25;5087071;28;20043;-90
2023/12/14 08:22:12;;;;;;;87.25;30.83;;;;;;;16.79;47.17;92610.13;5091333;28;20059;-92
2023/12/14 08:24:40;;;;;;;64.97;29.50;;;;;;;16.75;47.13;92620.63;5075754;28;20118;-91
2023/12/14 08:27:06;;;;;;;77.78;30.95;;;;;;;16.72;47.98;92624.38;5078572;28;20023;-92
2023/12/14 08:29:31;;;;;;;46.35;20.90;;;;;;;16.57;47.04;92627.53;5109437;28;20033;-91
2023/12/14 08:31:59;;;;;;;39.63;18.77;;;;;;;16.57;46.88;92635.72;5067752;28;20084;-90
2023/12/14 08:34:25;;;;;;;49.10;19.20;;;;;;;16.55;46.88;92640.22;5077559;28;20037;-92
2023/12/14 08:36:50;;;;;;;32.70;16.40;;;;;;;16.51;45.78;92637.78;5076541;28;20031;-90
2023/12/14 08:39:16;;;;;;;49.70;18.05;;;;;;;16.53;46.26;92653.66;5068751;28;20275;-90
2023/12/14 08:41:41;;;;;;;52.35;20.05;;;;;;;16.49;46.04;92645.75;5076690;28;20031;-91
2023/12/14 08:44:07;;;;;;;47.85;20.00;;;;;;;16.54;45.66;92655.13;5059335;28;20080;-91
2023/12/14 08:46:40;;;;;;;65.40;23.13;;;;;;;16.52;46.11;92657.63;5069159;28;20122;-91
2023/12/14 08:49:08;;;;;;;61.28;26.67;;;;;;;16.57;46.79;92665.75;5075082;28;20032;-91
2023/12/14 08:51:33;;;;;;;63.58;25.48;;;;;;;16.66;46.45;92665.41;5061750;28;20030;-91
2023/12/14 08:53:59;;;;;;;60.95;31.30;;;;;;;16.63;46.88;92674.63;5073805;28;20019;-90
2023/12/14 08:56:25;;;;;;;81.82;42.50;;;;;;;16.57;46.74;92673.19;5080395;28;20031;-91
2023/12/14 08:58:50;;;;;;;118.07;54.42;;;;;;;16.70;47.12;92686.91;5070169;28;20107;-90
2023/12/14 09:01:21;;;;;;;151.60;69.75;;;;;;;16.69;47.08;92688.19;5089563;28;20777;-92
2023/12/14 09:03:46;;;;;;;185.75;95.20;;;;;;;16.72;46.91;92690.63;5069864;28;20119;-90
2023/12/14 09:06:14;;;;;;;167.13;85.70;;;;;;;16.72;47.01;92690.63;5082871;28;20442;-89
2023/12/14 09:08:40;;;;;;;236.27;122.38;;;;;;;16.63;47.14;92698.41;5045867;28;20641;-90
2023/12/14 09:11:09;;;;;;;209.48;101.90;;;;;;;16.77;46.78;92710.91;5081545;28;20489;-90
2023/12/14 09:13:37;;;;;;;184.57;94.68;;;;;;;16.80;47.08;92709.88;5053734;28;20028;-89
2023/12/14 09:16:03;;;;;;;214.95;101.53;;;;;;;16.77;46.60;92708.16;5072416;28;20607;-90
2023/12/14 09:18:29;;;;;;;193.25;96.82;;;;;;;16.69;46.51;92715.47;5069684;28;20024;-89
2023/12/14 09:20:54;;;;;;;193.25;94.63;;;;;;;16.71;46.72;92721.16;5059844;28;20042;-90
2023/12/14 09:23:20;;;;;;;202.43;103.72;;;;;;;16.67;46.75;92724.16;5054565;28;20020;-88
2023/12/14 09:25:46;;;;;;;178.25;90.32;;;;;;;16.75;46.88;92732.50;5090274;28;20363;-91
2023/12/14 09:28:12;;;;;;;196.85;96.55;;;;;;;16.74;46.89;92739.97;5068418;28;20033;-89
2023/12/14 09:30:38;;;;;;;204.68;93.35;;;;;;;16.70;47.07;92744.97;5081605;28;20028;-90
2023/12/14 09:33:03;;;;;;;190.32;91.82;;;;;;;16.81;46.79;92743.38;5090422;28;20114;-91
2023/12/14 09:35:29;;;;;;;175.80;88.03;;;;;;;16.81;46.96;92746.09;5055908;28;20390;-91
2023/12/14 09:37:56;;;;;;;181.10;86.78;;;;;;;16.72;47.08;92749.91;5061148;28;20035;-89
2023/12/14 09:40:22;;;;;;;162.63;82.70;;;;;;;16.84;46.91;92750.53;5060010;28;20505;-91
2023/12/14 09:42:48;;;;;;;172.70;82.00;;;;;;;16.76;47.09;92751.09;5071476;28;20123;-89
2023/12/14 09:45:14;;;;;;;170.05;83.07;;;;;;;16.78;47.26;92756.06;5090557;28;20042;-92
2023/12/14 09:47:39;;;;;;;155.10;77.35;;;;;;;16.75;47.41;92755.09;5079071;28;20032;-91
2023/12/14 09:50:05;;;;;;;156.70;74.65;;;;;;;16.81;47.07;92762.47;5090159;28;20027;-89
2023/12/14 09:52:33;;;;;;;159.82;73.60;;;;;;;16.84;46.87;92767.63;5078072;28;20030;-90
2023/12/14 09:54:58;;;;;;;165.38;73.40;;;;;;;16.85;47.05;92769.13;5074625;28;20442;-89
2023/12/14 09:57:25;;;;;;;147.65;74.28;;;;;;;16.86;47.20;92778.78;5031873;28;20554;-90
2023/12/14 09:59:53;;;;;;;153.38;72.05;;;;;;;16.80;46.85;92772.66;5063483;28;20055;-88
2023/12/14 10:02:20;;;;;;;138.95;68.47;;;;;;;16.79;47.08;92780.09;5060433;28;20569;-88
2023/12/14 10:04:46;;;;;;;116.90;62.15;;;;;;;16.84;46.90;92777.81;5039104;28;20049;-90
2023/12/14 10:07:12;;;;;;;146.05;67.38;;;;;;;16.78;47.40;92791.53;5035173;28;20036;-88
2023/12/14 10:09:37;;;;;;;153.73;65.95;;;;;;;16.86;46.97;92778.78;5052344;28;20127;-89
2023/12/14 10:12:05;;;;;;;179.35;66.97;;;;;;;16.91;47.27;92785.41;5045535;28;20127;-87
2023/12/14 10:14:30;;;;;;;177.48;66.95;;;;;;;16.84;46.95;92788.75;5063277;28;20048;-86
2023/12/14 10:16:56;;;;;;;151.32;60.28;;;;;;;16.86;47.35;92791.69;5057502;28;20048;-90
2023/12/14 10:19:21;;;;;;;166.88;64.88;;;;;;;16.88;47.05;92784.47;5052249;28;20117;-91
2023/12/14 10:21:48;;;;;;;125.22;57.90;;;;;;;16.93;46.79;92793.81;5065402;28;20063;-86
2023/12/14 10:24:14;;;;;;;134.95;60.80;;;;;;;16.93;47.04;92796.56;5086406;28;20089;-90
2023/12/14 10:26:40;;;;;;;123.10;55.13;;;;;;;16.78;46.65;92792.28;5072396;28;20517;-91
2023/12/14 10:29:06;;;;;;;129.13;52.97;;;;;;;16.86;46.81;92795.16;5071911;28;20051;-91
2023/12/14 10:31:31;;;;;;;133.80;53.97;;;;;;;16.89;46.79;92790.66;5087343;28;20040;-91
2023/12/14 10:33:58;;;;;;;127.82;55.65;;;;;;;16.90;46.54;92792.84;5062060;28;20387;-90
2023/12/14 10:36:25;;;;;;;123.32;47.85;;;;;;;16.92;45.78;92795.81;5053778;28;20047;-91
2023/12/14 10:38:52;;;;;;;77.10;32.17;;;;;;;16.72;44.98;92785.41;5050940;28;20037;-87
2023/12/14 10:41:18;;;;;;;100.80;34.00;;;;;;;16.56;43.84;92789.78;5084979;28;20062;-91
2023/12/14 10:43:43;;;;;;;93.53;26.55;;;;;;;16.50;43.72;92804.72;5072770;28;20051;-89
2023/12/14 10:46:09;;;;;;;95.32;24.00;;;;;;;16.30;43.25;92803.19;5064673;28;20091;-89
2023/12/14 10:48:37;;;;;;;92.93;25.55;;;;;;;16.31;43.42;92818.31;5085478;28;20054;-90
2023/12/14 10:51:05;;;;;;;109.60;25.15;;;;;;;16.31;43.94;92815.59;5056029;28;20037;-86
2023/12/14 10:53:31;;;;;;;109.03;27.30;;;;;;;16.35;44.25;92824.97;5036716;28;20055;-91
2023/12/14 10:55:59;;;;;;;141.20;32.70;;;;;;;16.43;44.07;92833.34;5071494;28;20105;-88
2023/12/14 10:58:24;;;;;;;123.00;32.75;;;;;;;16.52;44.66;92818.59;5041556;28;20036;-88
2023/12/14 11:01:00;;;;;;;176.93;38.70;;;;;;;16.58;44.36;92827.47;5033372;28;20097;-87
2023/12/14 11:03:26;;;;;;;178.50;40.65;;;;;;;16.55;45.15;92834.69;5055057;28;20036;-92
2023/12/14 11:05:54;;;;;;;169.07;43.60;;;;;;;16.63;45.55;92827.44;5080977;28;20126;-88
2023/12/14 11:08:20;;;;;;;136.35;38.20;;;;;;;16.60;45.79;92842.06;5049007;28;20449;-86
2023/12/14 11:10:56;;;;;;;118.07;38.38;;;;;;;16.60;45.93;92828.44;5043824;28;20040;-87